createdAt,value
2022-10-25T00:01:52.802Z,50.63
2022-10-25T00:04:23.007Z,50.14
2022-10-25T00:06:53.044Z,50.31
2022-10-25T00:09:23.315Z,49.81
2022-10-25T00:11:53.513Z,52.06
2022-10-25T00:14:23.725Z,50.29
2022-10-25T00:16:55.066Z,49.48
2022-10-25T00:19:25.376Z,49.45
2022-10-25T00:21:56.627Z,49.51
2022-10-25T00:24:26.876Z,49.56
2022-10-25T00:26:57.675Z,49.63
2022-10-25T00:29:27.763Z,49.79
2022-10-25T00:31:57.826Z,49.47
2022-10-25T00:34:27.967Z,49.15
2022-10-25T00:36:58.132Z,49.25
2022-10-25T00:39:28.274Z,51.67
2022-10-25T00:41:58.726Z,49.83
2022-10-25T00:44:52.999Z,48.68
2022-10-25T00:47:23.171Z,48.94
2022-10-25T00:50:07.783Z,49.89
2022-10-25T00:52:40.418Z,49.68
2022-10-25T00:55:14.011Z,48.88
2022-10-25T00:58:04.250Z,49.36
2022-10-25T01:00:34.459Z,48.89
2022-10-25T01:03:05.763Z,48.84
2022-10-25T01:05:38.162Z,48.84
2022-10-25T01:08:08.635Z,48.30
2022-10-25T01:10:38.492Z,49.04
2022-10-25T01:13:08.883Z,49.05
2022-10-25T01:15:55.125Z,48.92
2022-10-25T01:18:39.632Z,48.81
2022-10-25T01:21:22.994Z,48.87
2022-10-25T01:24:16.827Z,48.81
2022-10-25T01:27:32.794Z,49.08
2022-10-25T01:30:28.701Z,48.20
2022-10-25T01:33:17.011Z,48.50
2022-10-25T01:35:56.785Z,48.28
2022-10-25T01:38:42.143Z,48.30
2022-10-25T01:41:36.254Z,48.13
2022-10-25T01:44:32.503Z,48.08
2022-10-25T01:47:23.762Z,48.41
2022-10-25T01:50:26.726Z,48.10
2022-10-25T01:52:57.316Z,48.32
2022-10-25T01:55:33.525Z,47.78
2022-10-25T01:58:27.963Z,47.96
2022-10-25T02:01:20.816Z,47.88
2022-10-25T02:04:08.063Z,48.71
2022-10-25T02:06:50.071Z,48.28
2022-10-25T02:09:43.062Z,48.14
2022-10-25T02:12:21.185Z,47.61
2022-10-25T02:15:15.644Z,47.68
2022-10-25T02:17:53.449Z,47.44
2022-10-25T02:20:26.445Z,49.22
2022-10-25T02:22:57.745Z,47.66
2022-10-25T02:25:28.805Z,47.70
2022-10-25T02:28:00.573Z,47.73
2022-10-25T02:30:34.502Z,47.72
2022-10-25T02:33:04.044Z,47.10
2022-10-25T02:35:34.356Z,48.51
2022-10-25T02:38:05.640Z,47.14
2022-10-25T02:40:37.698Z,47.64
2022-10-25T02:43:08.112Z,46.75
2022-10-25T02:45:41.300Z,47.77
2022-10-25T02:48:12.065Z,47.05
2022-10-25T02:50:42.331Z,46.90
2022-10-25T02:53:11.928Z,47.25
2022-10-25T02:55:42.011Z,47.62
2022-10-25T02:58:12.406Z,47.39
2022-10-25T03:00:43.763Z,46.90
2022-10-25T03:03:14.368Z,47.05
2022-10-25T03:05:47.194Z,46.42
2022-10-25T03:08:17.570Z,46.65
2022-10-25T03:10:47.934Z,47.41
2022-10-25T03:13:18.942Z,46.85
2022-10-25T03:15:49.521Z,46.74
2022-10-25T03:18:20.148Z,46.52
2022-10-25T03:20:51.274Z,46.62
2022-10-25T03:23:21.661Z,46.71
2022-10-25T03:25:57.764Z,47.10
2022-10-25T03:28:28.993Z,46.28
2022-10-25T03:31:01.318Z,46.94
2022-10-25T03:36:07.592Z,46.68
2022-10-25T03:38:38.158Z,46.51
2022-10-25T03:41:08.903Z,46.20
2022-10-25T03:43:39.311Z,46.21
2022-10-25T03:46:09.509Z,45.86
2022-10-25T03:48:39.000Z,46.44
2022-10-25T03:51:09.231Z,46.01
2022-10-25T03:53:39.449Z,46.10
2022-10-25T03:56:09.976Z,45.78
2022-10-25T03:58:40.459Z,45.76
2022-10-25T04:01:13.788Z,45.99
2022-10-25T04:03:46.507Z,45.80
2022-10-25T04:06:16.610Z,45.94
2022-10-25T04:08:46.817Z,46.00
2022-10-25T04:11:16.950Z,45.67
2022-10-25T04:13:47.321Z,45.77
2022-10-25T04:16:19.210Z,45.81
2022-10-25T04:18:51.786Z,46.06
2022-10-25T04:21:23.239Z,45.58
2022-10-25T04:23:54.229Z,45.71
2022-10-25T04:26:23.768Z,45.47
2022-10-25T04:28:55.638Z,45.64
2022-10-25T04:31:26.719Z,45.27
2022-10-25T04:33:58.339Z,45.27
2022-10-25T04:36:31.623Z,45.69
2022-10-25T04:39:01.757Z,45.21
2022-10-25T04:41:32.079Z,44.93
2022-10-25T04:44:02.798Z,45.13
2022-10-25T04:46:33.035Z,44.78
2022-10-25T04:49:06.335Z,44.93
2022-10-25T04:51:36.765Z,44.70
2022-10-25T04:54:06.958Z,45.09
2022-10-25T04:56:37.372Z,44.53
2022-10-25T04:59:08.033Z,44.76
2022-10-25T05:01:38.828Z,45.04
2022-10-25T05:04:09.160Z,44.68
2022-10-25T05:06:39.537Z,44.29
2022-10-25T05:09:09.816Z,44.41
2022-10-25T05:11:40.013Z,44.38
2022-10-25T05:14:10.890Z,44.16
2022-10-25T05:16:41.021Z,44.06
2022-10-25T05:19:11.742Z,44.45
2022-10-25T05:21:41.852Z,43.93
2022-10-25T05:24:12.067Z,44.03
2022-10-25T05:26:42.819Z,43.59
2022-10-25T05:29:14.566Z,44.03
2022-10-25T05:31:44.783Z,43.60
2022-10-25T05:34:14.940Z,44.36
2022-10-25T05:36:45.064Z,44.30
2022-10-25T05:39:15.183Z,44.18
2022-10-25T05:41:45.395Z,43.84
2022-10-25T05:44:16.435Z,44.31
2022-10-25T05:46:47.538Z,43.34
2022-10-25T05:49:17.909Z,43.08
2022-10-25T05:51:48.209Z,43.34
2022-10-25T05:54:18.604Z,43.61
2022-10-25T05:56:48.809Z,43.23
2022-10-25T05:59:19.028Z,43.04
2022-10-25T06:01:50.072Z,43.43
2022-10-25T06:04:21.026Z,43.23
2022-10-25T06:06:53.631Z,43.17
2022-10-25T06:09:24.108Z,43.10
2022-10-25T06:11:54.444Z,42.84
2022-10-25T06:14:25.099Z,42.64
2022-10-25T06:16:55.429Z,42.96
2022-10-25T06:19:25.743Z,42.79
2022-10-25T06:21:58.576Z,43.28
2022-10-25T06:24:28.789Z,43.07
2022-10-25T06:26:58.837Z,43.11
2022-10-25T06:29:28.992Z,42.71
2022-10-25T06:31:59.088Z,42.78
2022-10-25T06:34:29.279Z,42.33
2022-10-25T06:36:59.390Z,42.58
2022-10-25T06:39:29.619Z,43.07
2022-10-25T06:41:59.866Z,43.02
2022-10-25T06:44:30.031Z,42.92
2022-10-25T06:47:17.924Z,42.64
2022-10-25T06:49:47.905Z,43.13
2022-10-25T06:52:18.318Z,42.35
2022-10-25T06:54:48.589Z,42.78
2022-10-25T06:57:19.319Z,42.73
2022-10-25T06:59:50.211Z,42.98
2022-10-25T07:02:20.825Z,43.04
2022-10-25T07:04:51.701Z,42.65
2022-10-25T07:07:21.853Z,42.93
2022-10-25T07:09:51.937Z,42.70
2022-10-25T07:12:22.267Z,42.42
2022-10-25T07:14:52.349Z,42.93
2022-10-25T07:17:22.382Z,43.09
2022-10-25T07:19:52.625Z,42.47
2022-10-25T07:22:22.772Z,42.83
2022-10-25T07:24:53.055Z,42.64
2022-10-25T07:27:24.509Z,42.59
2022-10-25T07:29:55.586Z,43.03
2022-10-25T07:32:25.889Z,42.85
2022-10-25T07:34:56.079Z,43.02
2022-10-25T07:37:26.426Z,42.99
2022-10-25T07:39:56.509Z,42.82
2022-10-25T07:42:26.690Z,42.75
2022-10-25T07:44:56.815Z,43.00
2022-10-25T07:47:27.303Z,43.18
2022-10-25T07:49:59.640Z,43.38
2022-10-25T07:52:30.820Z,43.16
2022-10-25T07:55:01.034Z,43.18
2022-10-25T07:57:31.988Z,42.82
2022-10-25T08:00:02.601Z,42.71
2022-10-25T08:02:34.149Z,43.26
2022-10-25T08:05:04.832Z,43.06
2022-10-25T08:07:34.887Z,43.25
2022-10-25T08:10:06.094Z,42.82
2022-10-25T08:12:36.474Z,43.26
2022-10-25T08:15:06.245Z,43.05
2022-10-25T08:17:36.396Z,43.12
2022-10-25T08:20:06.846Z,43.14
2022-10-25T08:22:36.373Z,43.50
2022-10-25T08:25:12.169Z,43.42
2022-10-25T08:27:44.623Z,43.20
2022-10-25T08:30:15.173Z,43.35
2022-10-25T08:32:45.898Z,43.72
2022-10-25T08:35:16.939Z,43.67
2022-10-25T08:37:47.625Z,44.20
2022-10-25T08:40:23.069Z,43.97
2022-10-25T08:43:14.551Z,43.92
2022-10-25T08:46:10.831Z,43.78
2022-10-25T08:48:49.332Z,44.05
2022-10-25T08:51:35.960Z,43.75
2022-10-25T08:54:18.074Z,44.42
2022-10-25T08:57:03.408Z,44.94
2022-10-25T08:59:39.437Z,44.71
2022-10-25T09:02:41.127Z,44.38
2022-10-25T09:05:43.401Z,44.39
2022-10-25T09:08:37.930Z,44.32
2022-10-25T09:11:23.087Z,44.76
2022-10-25T09:13:55.337Z,45.11
2022-10-25T09:16:54.454Z,45.07
2022-10-25T09:19:27.189Z,45.53
2022-10-25T09:22:04.243Z,45.48
2022-10-25T09:24:57.672Z,45.54
2022-10-25T09:27:45.927Z,45.41
2022-10-25T09:30:16.467Z,45.84
2022-10-25T09:32:55.935Z,46.17
2022-10-25T09:35:48.118Z,45.64
2022-10-25T09:38:44.421Z,45.79
2022-10-25T09:41:36.082Z,46.18
2022-10-25T09:44:23.679Z,46.47
2022-10-25T09:47:00.142Z,46.44
2022-10-25T09:50:04.030Z,46.31
2022-10-25T09:52:43.157Z,45.77
2022-10-25T09:55:34.987Z,46.25
2022-10-25T09:58:05.617Z,46.45
2022-10-25T10:00:42.176Z,46.21
2022-10-25T10:03:14.250Z,46.54
2022-10-25T10:05:54.362Z,46.13
2022-10-25T10:08:26.182Z,46.08
2022-10-25T10:10:58.419Z,46.26
2022-10-25T10:13:30.604Z,46.31
2022-10-25T10:16:04.954Z,45.82
2022-10-25T10:18:37.046Z,46.13
2022-10-25T10:21:13.469Z,45.89
2022-10-25T10:23:57.342Z,46.10
2022-10-25T10:26:35.621Z,46.75
2022-10-25T10:29:15.369Z,46.77
2022-10-25T10:31:54.124Z,46.49
2022-10-25T10:34:26.795Z,47.34
2022-10-25T10:37:04.766Z,46.62
2022-10-25T10:39:35.919Z,47.91
2022-10-25T10:50:53.679Z,47.67
2022-10-25T10:53:34.642Z,47.56
2022-10-25T10:56:09.967Z,47.70
2022-10-25T10:58:44.511Z,47.74
2022-10-25T11:01:40.950Z,47.07
2022-10-25T11:04:11.974Z,48.29
2022-10-25T11:06:42.518Z,47.73
2022-10-25T11:09:19.101Z,47.65
2022-10-25T11:12:08.796Z,47.18
2022-10-25T11:14:40.359Z,47.58
2022-10-25T11:17:19.234Z,47.31
2022-10-25T11:20:04.567Z,47.53
2022-10-25T11:23:12.142Z,46.91
2022-10-25T11:26:07.557Z,46.99
2022-10-25T11:29:04.375Z,47.63
2022-10-25T11:31:44.488Z,48.14
2022-10-25T11:34:14.170Z,47.07
2022-10-25T11:37:16.567Z,47.44
2022-10-25T11:40:11.071Z,47.66
2022-10-25T11:43:07.334Z,48.00
2022-10-25T11:45:51.420Z,48.19
2022-10-25T11:48:28.147Z,48.13
2022-10-25T11:51:27.323Z,47.81
2022-10-25T11:54:13.150Z,48.34
2022-10-25T11:56:55.616Z,47.68
2022-10-25T12:00:03.434Z,47.99
2022-10-25T12:02:41.056Z,48.61
2022-10-25T12:05:49.064Z,48.08
2022-10-25T12:08:28.558Z,49.40
2022-10-25T12:11:21.563Z,48.64
2022-10-25T12:14:06.614Z,48.57
2022-10-25T12:16:39.776Z,49.17
2022-10-25T12:19:20.767Z,48.88
2022-10-25T12:22:09.877Z,48.93
2022-10-25T12:24:43.274Z,49.33
2022-10-25T12:27:15.961Z,49.30
2022-10-25T12:29:54.215Z,49.41
2022-10-25T12:32:56.472Z,48.71
2022-10-25T12:35:34.618Z,50.08
2022-10-25T12:38:14.850Z,49.30
2022-10-25T12:40:49.282Z,50.11
2022-10-25T12:43:24.149Z,49.84
2022-10-25T12:46:04.883Z,51.22
2022-10-25T12:49:09.831Z,49.21
2022-10-25T12:52:23.931Z,48.85
2022-10-25T12:55:15.347Z,49.03
2022-10-25T12:58:14.845Z,49.39
2022-10-25T13:01:25.036Z,49.01
2022-10-25T13:04:13.387Z,49.71
2022-10-25T13:06:49.580Z,49.00
2022-10-25T13:09:26.952Z,49.68
2022-10-25T13:12:20.458Z,49.97
2022-10-25T13:14:56.864Z,49.68
2022-10-25T13:17:29.437Z,49.99
2022-10-25T13:20:20.746Z,50.15
2022-10-25T13:22:51.168Z,50.65
2022-10-25T13:25:41.299Z,49.96
2022-10-25T13:28:19.233Z,49.67
2022-10-25T13:30:49.518Z,49.78
2022-10-25T13:33:28.792Z,49.67
2022-10-25T13:36:03.309Z,49.95
2022-10-25T13:38:40.312Z,49.55
2022-10-25T13:41:17.593Z,49.67
2022-10-25T13:44:06.255Z,49.34
2022-10-25T13:46:43.612Z,49.31
2022-10-25T13:49:43.712Z,48.74
2022-10-25T13:52:26.450Z,49.88
2022-10-25T13:54:59.079Z,49.27
2022-10-25T13:57:52.284Z,48.82
2022-10-25T14:00:49.321Z,48.85
2022-10-25T14:03:23.275Z,49.83
2022-10-25T14:05:56.983Z,50.13
2022-10-25T14:09:11.487Z,48.46
2022-10-25T14:11:52.558Z,49.90
2022-10-25T14:14:31.794Z,49.00
2022-10-25T14:17:11.999Z,49.38
2022-10-25T14:19:44.033Z,50.05
2022-10-25T14:22:35.550Z,48.81
2022-10-25T14:25:30.363Z,49.51
2022-10-25T14:28:18.658Z,49.47
2022-10-25T14:31:00.011Z,49.69
2022-10-25T14:33:58.214Z,48.99
2022-10-25T14:36:40.061Z,49.65
2022-10-25T14:39:22.091Z,49.26
2022-10-25T14:42:05.964Z,49.38
2022-10-25T14:44:56.421Z,49.39
2022-10-25T14:47:31.903Z,49.44
2022-10-25T14:50:04.138Z,49.83
2022-10-25T14:52:34.731Z,49.86
2022-10-25T14:55:08.815Z,49.67
2022-10-25T14:57:39.552Z,50.00
2022-10-25T15:00:19.345Z,49.89
2022-10-25T15:02:54.862Z,50.47
2022-10-25T15:05:27.085Z,49.82
2022-10-25T15:08:02.382Z,49.73
2022-10-25T15:10:42.905Z,49.39
2022-10-25T15:13:26.041Z,49.90
2022-10-25T15:15:59.301Z,51.91
2022-10-25T15:18:32.319Z,53.51
2022-10-25T15:21:07.395Z,49.98
2022-10-25T15:23:38.997Z,50.63
2022-10-25T15:26:32.783Z,49.26
2022-10-25T15:29:05.444Z,51.36
2022-10-25T15:31:37.103Z,50.85
2022-10-25T15:34:08.355Z,50.47
2022-10-25T15:36:40.332Z,50.07
2022-10-25T15:39:29.875Z,49.95
2022-10-25T15:42:00.375Z,50.47
2022-10-25T15:44:30.805Z,52.84
2022-10-25T15:47:01.414Z,52.24
2022-10-25T15:49:32.488Z,50.71
2022-10-25T15:52:02.918Z,50.95
2022-10-25T15:54:35.850Z,50.56
2022-10-25T15:57:06.706Z,50.43
2022-10-25T15:59:37.088Z,50.61
2022-10-25T16:02:23.387Z,49.95
2022-10-25T16:04:54.013Z,51.87
2022-10-25T16:07:25.105Z,50.70
2022-10-25T16:09:55.823Z,50.43
2022-10-25T16:12:33.946Z,50.66
2022-10-25T16:15:04.916Z,50.01
2022-10-25T16:17:36.231Z,50.48
2022-10-25T16:20:17.368Z,49.93
2022-10-25T16:22:50.560Z,50.56
2022-10-25T16:25:21.273Z,50.62
2022-10-25T16:27:52.996Z,50.75
2022-10-25T16:30:32.176Z,50.43
2022-10-25T16:33:03.379Z,50.67
2022-10-25T16:35:33.740Z,50.61
2022-10-25T16:38:05.811Z,50.91
2022-10-25T16:40:37.733Z,50.91
2022-10-25T16:43:08.263Z,50.26
2022-10-25T16:45:39.681Z,50.96
2022-10-25T16:48:10.112Z,50.90
2022-10-25T16:50:40.750Z,50.67
2022-10-25T16:53:13.309Z,51.11
2022-10-25T16:55:44.264Z,51.41
2022-10-25T16:58:14.646Z,51.26
2022-10-25T17:00:44.838Z,52.25
2022-10-25T17:03:16.556Z,50.84
2022-10-25T17:05:48.718Z,51.13
2022-10-25T17:08:19.038Z,53.08
2022-10-25T17:10:49.498Z,53.06
2022-10-25T17:13:20.962Z,51.92
2022-10-25T17:15:53.214Z,51.50
2022-10-25T17:18:23.664Z,54.06
2022-10-25T17:20:53.929Z,51.84
2022-10-25T17:23:24.223Z,52.58
2022-10-25T17:26:01.472Z,51.54
2022-10-25T17:28:33.163Z,52.88
2022-10-25T17:31:09.827Z,51.85
2022-10-25T17:33:40.229Z,51.38
2022-10-25T17:36:12.985Z,50.81
2022-10-25T17:38:44.028Z,51.49
2022-10-25T17:41:15.867Z,51.34
2022-10-25T17:43:46.243Z,51.49
2022-10-25T17:46:21.998Z,51.00
2022-10-25T17:48:56.977Z,51.48
2022-10-25T17:51:27.428Z,51.63
2022-10-25T17:53:58.426Z,52.29
2022-10-25T17:59:07.115Z,52.60
2022-10-25T18:01:39.047Z,52.27
2022-10-25T18:04:09.767Z,51.79
2022-10-25T18:06:39.975Z,53.32
2022-10-25T18:09:11.650Z,51.83
2022-10-25T18:11:41.987Z,51.88
2022-10-25T18:14:12.629Z,51.65
2022-10-25T18:16:42.860Z,51.57
2022-10-25T18:19:15.773Z,51.07
2022-10-25T18:21:47.968Z,52.05
2022-10-25T18:24:18.758Z,52.34
2022-10-25T18:26:48.910Z,51.31
2022-10-25T18:29:19.122Z,51.87
2022-10-25T18:31:49.320Z,51.90
2022-10-25T18:34:20.257Z,51.90
2022-10-25T18:36:50.354Z,51.96
2022-10-25T18:39:20.616Z,51.86
2022-10-25T18:41:51.608Z,53.26
2022-10-25T18:44:21.757Z,52.29
2022-10-25T18:46:51.860Z,52.65
2022-10-25T18:49:22.120Z,54.29
2022-10-25T18:51:52.209Z,51.71
2022-10-25T18:54:22.329Z,52.19
2022-10-25T18:56:52.481Z,51.49
2022-10-25T18:59:22.801Z,51.97
2022-10-25T19:01:53.303Z,52.84
2022-10-25T19:04:24.297Z,51.87
2022-10-25T19:06:54.348Z,53.13
2022-10-25T19:09:24.732Z,51.97
2022-10-25T19:11:54.813Z,52.31
2022-10-25T19:14:24.848Z,51.52
2022-10-25T19:16:54.809Z,51.88
2022-10-25T19:19:25.620Z,51.50
2022-10-25T19:21:56.786Z,52.18
2022-10-25T19:24:27.340Z,53.20
2022-10-25T19:26:57.564Z,55.52
2022-10-25T19:29:27.747Z,52.85
2022-10-25T19:31:59.338Z,52.25
2022-10-25T19:34:29.427Z,52.49
2022-10-25T19:37:03.161Z,52.86
2022-10-25T19:39:33.941Z,53.62
2022-10-25T19:42:04.263Z,52.73
2022-10-25T19:44:36.060Z,52.17
2022-10-25T19:47:06.432Z,52.86
2022-10-25T19:49:36.606Z,52.46
2022-10-25T19:52:06.945Z,52.70
2022-10-25T19:54:37.086Z,52.37
2022-10-25T19:57:07.957Z,52.65
2022-10-25T19:59:38.043Z,52.85
2022-10-25T20:02:08.675Z,52.60
2022-10-25T20:04:39.043Z,52.77
2022-10-25T20:07:09.340Z,52.43
2022-10-25T20:09:39.473Z,52.27
2022-10-25T20:12:11.151Z,52.43
2022-10-25T20:14:42.131Z,52.58
2022-10-25T20:17:13.954Z,52.71
2022-10-25T20:19:44.458Z,52.34
2022-10-25T20:22:15.600Z,52.94
2022-10-25T20:24:46.195Z,52.63
2022-10-25T20:27:16.629Z,52.79
2022-10-25T20:29:47.739Z,52.68
2022-10-25T20:32:18.135Z,52.31
2022-10-25T20:34:48.692Z,52.49
2022-10-25T20:37:18.865Z,54.25
2022-10-25T20:39:49.906Z,52.60
2022-10-25T20:42:20.679Z,52.71
2022-10-25T20:44:51.031Z,52.56
2022-10-25T20:47:22.695Z,52.54
2022-10-25T20:49:52.945Z,53.01
2022-10-25T20:52:24.494Z,52.63
2022-10-25T20:57:31.967Z,53.12
2022-10-25T21:00:02.262Z,53.73
2022-10-25T21:02:32.665Z,53.08
2022-10-25T21:05:02.822Z,53.47
2022-10-25T21:07:34.159Z,53.52
2022-10-25T21:10:04.706Z,53.62
2022-10-25T21:12:35.055Z,53.66
2022-10-25T21:15:09.435Z,53.29
2022-10-25T21:17:42.594Z,53.53
2022-10-25T21:20:13.093Z,53.49
2022-10-25T21:22:43.945Z,54.80
2022-10-25T21:25:16.272Z,54.06
2022-10-25T21:27:46.903Z,53.71
2022-10-25T21:30:17.717Z,54.23
2022-10-25T21:32:47.973Z,53.55
2022-10-25T21:35:19.160Z,54.27
2022-10-25T21:37:49.499Z,53.52
2022-10-25T21:40:19.541Z,53.79
2022-10-25T21:42:49.747Z,53.41
2022-10-25T21:45:19.923Z,53.27
2022-10-25T21:47:50.658Z,53.67
2022-10-25T21:50:21.596Z,54.02
2022-10-25T21:52:54.395Z,53.65
2022-10-25T21:55:25.202Z,54.09
2022-10-25T21:57:57.744Z,53.66
2022-10-25T22:00:29.766Z,55.57
2022-10-25T22:03:00.288Z,53.74
2022-10-25T22:05:30.797Z,53.46
2022-10-25T22:08:01.311Z,53.94
2022-10-25T22:10:31.892Z,55.43
2022-10-25T22:13:02.034Z,53.72
2022-10-25T22:15:32.729Z,52.95
2022-10-25T22:18:02.838Z,53.15
2022-10-25T22:20:32.936Z,52.90
2022-10-25T22:23:04.530Z,53.01
2022-10-25T22:25:35.187Z,53.15
2022-10-25T22:28:05.147Z,53.36
2022-10-25T22:30:35.234Z,52.62
2022-10-25T22:33:05.302Z,52.98
2022-10-25T22:35:36.667Z,53.04
2022-10-25T22:38:06.880Z,54.27
2022-10-25T22:41:09.327Z,52.82
2022-10-25T22:43:42.520Z,53.41
2022-10-25T22:46:27.153Z,52.62
2022-10-25T22:49:01.083Z,53.16
2022-10-25T22:51:33.125Z,53.40
2022-10-25T22:54:05.733Z,52.99
2022-10-25T22:56:45.067Z,53.32
2022-10-25T22:59:23.692Z,53.92
2022-10-25T23:01:57.229Z,53.49
2022-10-25T23:04:27.953Z,53.27
2022-10-25T23:06:59.362Z,54.91
2022-10-25T23:09:30.760Z,52.92
2022-10-25T23:12:00.989Z,53.27
2022-10-25T23:14:31.483Z,53.45
2022-10-25T23:17:01.504Z,53.30
2022-10-25T23:19:31.480Z,53.21
2022-10-25T23:22:02.874Z,53.21
2022-10-25T23:24:33.028Z,52.99
2022-10-25T23:27:04.763Z,53.23
2022-10-25T23:29:36.046Z,53.03
2022-10-25T23:32:07.629Z,52.56
2022-10-25T23:34:41.453Z,53.51
2022-10-25T23:37:13.011Z,53.19
2022-10-25T23:39:49.301Z,55.06
2022-10-25T23:42:19.921Z,52.97
2022-10-25T23:44:49.898Z,53.16
2022-10-25T23:47:50.020Z,52.52
